createdAt,value
2019-05-10T00:00:02.502Z,97.80
2019-05-10T00:01:02.565Z,98.08
2019-05-10T00:02:02.589Z,98.27
2019-05-10T00:03:02.622Z,98.18
2019-05-10T00:04:02.666Z,98.03
2019-05-10T00:05:02.704Z,97.99
2019-05-10T00:06:02.744Z,97.99
2019-05-10T00:07:02.787Z,98.27
2019-05-10T00:08:02.825Z,98.18
2019-05-10T00:09:02.879Z,98.46
2019-05-10T00:10:02.907Z,98.46
2019-05-10T00:11:02.959Z,97.80
2019-05-10T00:12:03.078Z,97.89
2019-05-10T00:13:03.035Z,98.36
2019-05-10T00:14:03.070Z,98.36
2019-05-10T00:15:03.117Z,98.27
2019-05-10T00:16:03.153Z,97.61
2019-05-10T00:17:03.246Z,97.61
2019-05-10T00:18:03.232Z,97.51
2019-05-10T00:19:03.282Z,97.51
2019-05-10T00:20:03.416Z,97.80
2019-05-10T00:21:03.369Z,98.65
2019-05-10T00:22:03.393Z,97.51
2019-05-10T00:23:03.434Z,98.27
2019-05-10T00:24:03.484Z,98.36
2019-05-10T00:25:04.970Z,97.89
2019-05-10T00:26:03.556Z,97.61
2019-05-10T00:27:03.646Z,97.89
2019-05-10T00:28:03.646Z,97.99
2019-05-10T00:29:03.678Z,97.61
2019-05-10T00:30:03.726Z,97.41
2019-05-10T00:31:03.773Z,97.41
2019-05-10T00:32:03.799Z,97.61
2019-05-10T00:33:03.847Z,97.41
2019-05-10T00:34:03.880Z,97.80
2019-05-10T00:35:03.921Z,97.41
2019-05-10T00:36:03.960Z,97.51
2019-05-10T00:37:04.008Z,97.51
2019-05-10T00:38:04.042Z,97.61
2019-05-10T00:39:04.091Z,97.89
2019-05-10T00:40:04.122Z,97.80
2019-05-10T00:41:04.165Z,97.61
2019-05-10T00:42:04.208Z,97.80
2019-05-10T00:43:04.258Z,97.61
2019-05-10T00:44:04.297Z,97.51
2019-05-10T00:45:04.332Z,97.61
2019-05-10T00:46:04.369Z,97.51
2019-05-10T00:47:04.414Z,97.41
2019-05-10T00:48:04.456Z,97.89
2019-05-10T00:49:04.500Z,97.70
2019-05-10T00:50:04.527Z,97.03
2019-05-10T00:51:04.566Z,97.13
2019-05-10T00:52:04.608Z,97.03
2019-05-10T00:53:04.648Z,97.32
2019-05-10T00:54:04.688Z,97.13
2019-05-10T00:55:17.869Z,97.13
2019-05-10T00:56:04.769Z,96.84
2019-05-10T00:57:04.815Z,97.32
2019-05-10T00:58:04.931Z,96.94
2019-05-10T00:59:04.892Z,97.80
2019-05-10T01:00:04.930Z,97.80
2019-05-10T01:01:04.971Z,97.70
2019-05-10T01:02:05.010Z,97.70
2019-05-10T01:03:05.053Z,97.51
2019-05-10T01:04:05.093Z,97.80
2019-05-10T01:05:05.135Z,97.32
2019-05-10T01:06:05.515Z,97.80
2019-05-10T01:07:05.265Z,97.41
2019-05-10T01:08:05.253Z,97.61
2019-05-10T01:09:05.304Z,97.89
2019-05-10T01:10:05.335Z,98.08
2019-05-10T01:11:05.381Z,98.18
2019-05-10T01:12:05.419Z,98.46
2019-05-10T01:13:05.457Z,98.46
2019-05-10T01:14:05.507Z,98.46
2019-05-10T01:15:05.544Z,98.85
2019-05-10T01:16:05.584Z,99.51
2019-05-10T01:17:05.620Z,98.94
2019-05-10T01:18:05.659Z,99.13
2019-05-10T01:19:05.700Z,99.13
2019-05-10T01:20:05.741Z,98.56
2019-05-10T01:21:05.786Z,99.13
2019-05-10T01:22:05.829Z,98.94
2019-05-10T01:23:05.862Z,98.85
2019-05-10T01:24:05.901Z,99.04
2019-05-10T01:25:05.950Z,98.94
2019-05-10T01:26:05.984Z,99.13
2019-05-10T01:27:06.023Z,99.04
2019-05-10T01:28:06.377Z,99.04
2019-05-10T01:29:06.108Z,98.85
2019-05-10T01:30:06.149Z,99.13
2019-05-10T01:31:06.189Z,99.13
2019-05-10T01:32:06.229Z,99.51
2019-05-10T01:33:06.274Z,99.04
2019-05-10T01:34:06.311Z,99.13
2019-05-10T01:35:06.351Z,99.13
2019-05-10T01:36:06.390Z,99.22
2019-05-10T01:37:06.431Z,99.13
2019-05-10T01:38:06.471Z,99.04
2019-05-10T01:39:06.512Z,99.13
2019-05-10T01:40:06.555Z,99.22
2019-05-10T01:41:06.593Z,98.94
2019-05-10T01:42:06.636Z,99.04
2019-05-10T01:43:06.680Z,98.94
2019-05-10T01:44:06.717Z,99.60
2019-05-10T01:45:06.770Z,99.22
2019-05-10T01:46:06.798Z,99.04
2019-05-10T01:47:06.836Z,99.13
2019-05-10T01:48:06.879Z,98.94
2019-05-10T01:49:06.919Z,98.85
2019-05-10T01:50:06.969Z,99.51
2019-05-10T01:51:06.997Z,99.22
2019-05-10T01:52:07.040Z,99.70
2019-05-10T01:53:07.087Z,99.18
2019-05-10T01:54:07.118Z,99.22
2019-05-10T01:55:07.159Z,99.32
2019-05-10T01:56:07.207Z,99.37
2019-05-10T01:57:07.241Z,99.66
2019-05-10T01:58:07.287Z,99.66
2019-05-10T01:59:07.323Z,98.99
2019-05-10T02:00:07.364Z,99.66
2019-05-10T02:01:07.421Z,99.66
2019-05-10T02:02:07.444Z,99.66
2019-05-10T02:03:07.485Z,99.37
2019-05-10T02:04:07.533Z,99.37
2019-05-10T02:05:07.575Z,99.66
2019-05-10T02:06:07.607Z,99.08
2019-05-10T02:07:07.648Z,99.27
2019-05-10T02:08:07.686Z,99.46
2019-05-10T02:09:07.728Z,99.37
2019-05-10T02:10:07.778Z,99.37
2019-05-10T02:11:07.813Z,99.56
2019-05-10T02:12:07.852Z,99.41
2019-05-10T02:13:08.025Z,99.46
2019-05-10T02:14:07.996Z,99.27
2019-05-10T02:15:07.973Z,99.37
2019-05-10T02:16:08.015Z,99.37
2019-05-10T02:17:08.054Z,99.56
2019-05-10T02:18:08.093Z,99.56
2019-05-10T02:19:08.139Z,99.37
2019-05-10T02:20:08.175Z,99.75
2019-05-10T02:21:08.216Z,99.08
2019-05-10T02:22:08.257Z,98.94
2019-05-10T02:23:08.295Z,99.60
2019-05-10T02:24:08.354Z,99.13
2019-05-10T02:25:08.377Z,98.94
2019-05-10T02:26:09.985Z,99.51
2019-05-10T02:27:08.459Z,99.13
2019-05-10T02:28:08.505Z,98.94
2019-05-10T02:29:08.540Z,99.13
2019-05-10T02:30:08.584Z,99.22
2019-05-10T02:31:08.623Z,99.22
2019-05-10T02:32:08.662Z,99.22
2019-05-10T02:33:08.706Z,99.04
2019-05-10T02:34:08.754Z,98.94
2019-05-10T02:35:08.785Z,98.94
2019-05-10T02:36:08.826Z,98.27
2019-05-10T02:37:08.865Z,98.36
2019-05-10T02:38:08.905Z,98.36
2019-05-10T02:39:08.956Z,97.99
2019-05-10T02:40:08.987Z,98.56
2019-05-10T02:41:09.028Z,98.56
2019-05-10T02:42:09.069Z,98.08
2019-05-10T02:43:09.109Z,98.27
2019-05-10T02:44:09.153Z,97.99
2019-05-10T02:45:09.318Z,98.18
2019-05-10T02:46:09.302Z,98.46
2019-05-10T02:47:09.271Z,98.46
2019-05-10T02:48:09.312Z,98.85
2019-05-10T02:49:09.351Z,98.65
2019-05-10T02:50:09.391Z,99.13
2019-05-10T02:51:09.433Z,98.65
2019-05-10T02:52:09.472Z,98.56
2019-05-10T02:53:09.514Z,98.46
2019-05-10T02:54:09.553Z,98.94
2019-05-10T02:55:09.595Z,98.85
2019-05-10T02:56:27.840Z,98.56
2019-05-10T02:57:09.677Z,98.36
2019-05-10T02:58:14.253Z,98.56
2019-05-10T02:59:09.757Z,98.46
2019-05-10T03:00:09.797Z,98.36
2019-05-10T03:01:09.836Z,98.46
2019-05-10T03:02:09.878Z,98.85
2019-05-10T03:03:09.931Z,98.65
2019-05-10T03:04:09.975Z,98.75
2019-05-10T03:05:09.998Z,98.94
2019-05-10T03:06:10.041Z,98.94
2019-05-10T03:07:10.080Z,98.65
2019-05-10T03:08:10.122Z,98.46
2019-05-10T03:09:10.164Z,98.56
2019-05-10T03:10:10.255Z,99.22
2019-05-10T03:11:10.240Z,98.94
2019-05-10T03:12:10.284Z,99.22
2019-05-10T03:13:10.327Z,99.04
2019-05-10T03:14:10.371Z,99.32
2019-05-10T03:15:10.406Z,99.99
2019-05-10T03:16:10.446Z,99.99
2019-05-10T03:17:10.486Z,99.99
2019-05-10T03:18:10.530Z,99.99
2019-05-10T03:19:10.566Z,99.99
2019-05-10T03:20:10.620Z,99.99
2019-05-10T03:21:10.651Z,99.99
2019-05-10T03:22:10.686Z,99.99
2019-05-10T03:23:10.730Z,99.99
2019-05-10T03:24:10.769Z,99.99
2019-05-10T03:25:10.810Z,99.99
2019-05-10T03:26:10.847Z,99.99
2019-05-10T03:27:10.897Z,99.99
2019-05-10T03:28:10.930Z,99.99
2019-05-10T03:29:10.971Z,99.99
2019-05-10T03:30:11.015Z,99.99
2019-05-10T03:31:11.064Z,99.99
2019-05-10T03:32:11.097Z,99.99
2019-05-10T03:33:11.135Z,99.99
2019-05-10T03:34:11.173Z,99.99
2019-05-10T03:35:11.243Z,99.99
2019-05-10T03:36:11.259Z,99.99
2019-05-10T03:37:11.307Z,99.99
2019-05-10T03:38:11.334Z,99.99
2019-05-10T03:39:11.373Z,99.99
2019-05-10T03:40:11.416Z,99.99
2019-05-10T03:41:11.457Z,99.99
2019-05-10T03:42:11.500Z,99.99
2019-05-10T03:43:11.549Z,99.99
2019-05-10T03:44:11.580Z,99.99
2019-05-10T03:45:11.618Z,99.99
2019-05-10T03:46:11.666Z,99.99
2019-05-10T03:47:11.714Z,99.99
2019-05-10T03:48:11.739Z,99.99
2019-05-10T03:49:11.778Z,99.99
2019-05-10T03:50:11.817Z,99.99
2019-05-10T03:51:11.867Z,99.99
2019-05-10T03:52:11.901Z,99.99
2019-05-10T03:53:11.952Z,99.99
2019-05-10T03:54:12.020Z,99.99
2019-05-10T03:55:12.017Z,99.99
2019-05-10T03:56:12.060Z,99.99
2019-05-10T03:57:14.451Z,99.99
2019-05-10T03:58:12.147Z,99.99
2019-05-10T03:59:12.179Z,99.99
2019-05-10T04:00:12.220Z,99.99
2019-05-10T04:01:12.263Z,99.99
2019-05-10T04:02:12.311Z,99.99
2019-05-10T04:03:12.345Z,99.99
2019-05-10T04:04:12.389Z,99.99
2019-05-10T04:05:12.439Z,99.99
2019-05-10T04:06:12.469Z,99.99
2019-05-10T04:07:12.501Z,99.99
2019-05-10T04:08:12.552Z,99.99
2019-05-10T04:09:12.583Z,99.99
2019-05-10T04:10:12.623Z,99.99
2019-05-10T04:11:12.667Z,99.99
2019-05-10T04:12:12.704Z,99.99
2019-05-10T04:13:12.758Z,99.99
2019-05-10T04:14:12.790Z,99.99
2019-05-10T04:15:12.830Z,99.99
2019-05-10T04:16:12.869Z,99.99
2019-05-10T04:17:12.907Z,99.99
2019-05-10T04:18:12.948Z,99.99
2019-05-10T04:19:12.986Z,99.99
2019-05-10T04:20:13.027Z,99.99
2019-05-10T04:21:13.074Z,99.99
2019-05-10T04:22:13.105Z,99.99
2019-05-10T04:23:13.146Z,99.99
2019-05-10T04:24:13.186Z,99.99
2019-05-10T04:25:13.229Z,99.99
2019-05-10T04:26:13.276Z,99.99
2019-05-10T04:27:30.568Z,99.99
2019-05-10T04:28:13.351Z,99.99
2019-05-10T04:29:13.393Z,99.99
2019-05-10T04:30:13.428Z,99.99
2019-05-10T04:31:13.469Z,99.99
2019-05-10T04:32:13.510Z,99.99
2019-05-10T04:33:13.556Z,99.99
2019-05-10T04:34:13.593Z,99.99
2019-05-10T04:35:13.646Z,99.99
2019-05-10T04:36:13.674Z,99.99
2019-05-10T04:37:13.714Z,99.99
2019-05-10T04:38:13.754Z,99.99
2019-05-10T04:39:13.882Z,99.99
2019-05-10T04:40:13.846Z,99.99
2019-05-10T04:41:13.890Z,99.99
2019-05-10T04:42:13.914Z,99.99
2019-05-10T04:43:13.953Z,99.99
2019-05-10T04:44:13.994Z,99.99
2019-05-10T04:45:14.050Z,99.99
2019-05-10T04:46:14.075Z,99.99
2019-05-10T04:47:14.114Z,99.99
2019-05-10T04:48:14.232Z,99.99
2019-05-10T04:49:14.196Z,99.99
2019-05-10T04:50:14.231Z,99.99
2019-05-10T04:51:14.272Z,99.99
2019-05-10T04:52:14.313Z,99.99
2019-05-10T04:53:14.352Z,99.99
2019-05-10T04:54:14.394Z,99.99
2019-05-10T04:55:14.432Z,99.99
2019-05-10T04:56:14.473Z,99.99
2019-05-10T04:57:14.517Z,99.99
2019-05-10T04:58:14.570Z,99.99
2019-05-10T04:59:14.606Z,99.99
2019-05-10T05:00:14.633Z,99.99
2019-05-10T05:01:14.674Z,99.99
2019-05-10T05:02:14.716Z,99.99
2019-05-10T05:03:14.758Z,99.99
2019-05-10T05:04:14.794Z,99.99
2019-05-10T05:05:14.833Z,99.99
2019-05-10T05:06:14.954Z,99.99
2019-05-10T05:07:14.913Z,99.99
2019-05-10T05:08:14.955Z,99.99
2019-05-10T05:09:14.994Z,99.99
2019-05-10T05:10:15.035Z,99.99
2019-05-10T05:11:15.074Z,99.99
2019-05-10T05:12:15.133Z,99.99
2019-05-10T05:13:15.157Z,99.99
2019-05-10T05:14:15.195Z,99.99
2019-05-10T05:15:15.250Z,99.99
2019-05-10T05:16:15.279Z,99.99
2019-05-10T05:17:15.317Z,99.99
2019-05-10T05:18:15.356Z,99.99
2019-05-10T05:19:15.402Z,99.99
2019-05-10T05:20:15.436Z,99.99
2019-05-10T05:21:15.477Z,99.99
2019-05-10T05:22:15.524Z,99.99
2019-05-10T05:23:15.561Z,99.99
2019-05-10T05:24:16.994Z,99.99
2019-05-10T05:25:15.639Z,99.99
2019-05-10T05:26:15.685Z,99.99
2019-05-10T05:27:15.720Z,99.99
2019-05-10T05:28:18.310Z,99.99
2019-05-10T05:29:15.801Z,99.99
2019-05-10T05:30:15.842Z,99.99
2019-05-10T05:31:15.889Z,99.99
2019-05-10T05:32:15.929Z,99.99
2019-05-10T05:33:15.970Z,99.99
2019-05-10T05:34:16.003Z,99.99
2019-05-10T05:35:16.061Z,99.99
2019-05-10T05:36:16.084Z,99.99
2019-05-10T05:37:16.130Z,99.99
2019-05-10T05:38:16.166Z,99.99
2019-05-10T05:39:16.209Z,99.99
2019-05-10T05:40:16.249Z,99.99
2019-05-10T05:41:16.462Z,99.99
2019-05-10T05:42:16.336Z,99.99
2019-05-10T05:43:16.367Z,99.99
2019-05-10T05:44:20.275Z,99.99
2019-05-10T05:45:16.457Z,99.99
2019-05-10T05:46:16.491Z,99.99
2019-05-10T05:47:16.538Z,99.99
2019-05-10T05:48:21.424Z,99.99
2019-05-10T05:49:16.613Z,99.99
2019-05-10T05:50:16.660Z,99.99
2019-05-10T05:51:16.693Z,99.99
2019-05-10T05:52:16.735Z,99.99
2019-05-10T05:53:16.777Z,99.99
2019-05-10T05:54:20.785Z,99.99
2019-05-10T05:55:16.861Z,99.99
2019-05-10T05:56:16.910Z,99.43
2019-05-10T05:57:16.942Z,99.62
2019-05-10T05:58:26.695Z,99.43
2019-05-10T05:59:23.183Z,99.33
2019-05-10T06:00:17.070Z,99.24
2019-05-10T06:01:26.795Z,99.62
2019-05-10T06:02:17.156Z,99.62
2019-05-10T06:03:27.704Z,99.43
2019-05-10T06:04:17.238Z,99.14
2019-05-10T06:05:32.592Z,99.62
2019-05-10T06:06:21.737Z,99.43
2019-05-10T06:07:17.365Z,99.52
2019-05-10T06:08:22.706Z,99.62
2019-05-10T06:09:17.455Z,99.43
2019-05-10T06:10:19.783Z,99.14
2019-05-10T06:11:17.533Z,99.62
2019-05-10T06:12:17.572Z,98.85
2019-05-10T06:13:17.616Z,99.52
2019-05-10T06:14:17.658Z,99.33
2019-05-10T06:15:17.703Z,99.24
2019-05-10T06:16:17.743Z,99.43
2019-05-10T06:17:17.783Z,99.14
2019-05-10T06:18:17.825Z,99.14
2019-05-10T06:19:20.500Z,99.10
2019-05-10T06:20:17.910Z,99.10
2019-05-10T06:21:24.527Z,98.90
2019-05-10T06:22:17.993Z,98.66
2019-05-10T06:23:18.062Z,98.38
2019-05-10T06:24:18.082Z,97.90
2019-05-10T06:25:18.142Z,98.85
2019-05-10T06:26:26.420Z,98.38
2019-05-10T06:27:18.220Z,98.38
2019-05-10T06:28:27.016Z,99.24
2019-05-10T06:29:19.880Z,98.75
2019-05-10T06:30:18.336Z,99.33
2019-05-10T06:31:18.380Z,99.10
2019-05-10T06:32:18.422Z,98.95
2019-05-10T06:33:18.467Z,99.10
2019-05-10T06:34:18.509Z,98.24
2019-05-10T06:35:19.423Z,98.81
2019-05-10T06:36:18.605Z,98.14
2019-05-10T06:37:18.640Z,97.75
2019-05-10T06:38:18.678Z,97.23
2019-05-10T06:39:18.721Z,97.33
2019-05-10T06:40:32.685Z,97.04
2019-05-10T06:41:19.217Z,96.27
2019-05-10T06:42:18.851Z,96.22
2019-05-10T06:43:18.899Z,96.32
2019-05-10T06:44:18.934Z,95.75
2019-05-10T06:45:18.976Z,95.94
2019-05-10T06:46:23.527Z,96.22
2019-05-10T06:47:21.783Z,95.94
2019-05-10T06:48:27.529Z,95.27
2019-05-10T06:49:19.151Z,95.75
2019-05-10T06:50:28.615Z,95.98
2019-05-10T06:51:19.236Z,96.13
2019-05-10T06:52:21.963Z,95.75
2019-05-10T06:53:19.342Z,95.98
2019-05-10T06:54:19.366Z,96.08
2019-05-10T06:55:19.410Z,96.08
2019-05-10T06:56:19.453Z,96.94
2019-05-10T06:57:19.497Z,96.84
2019-05-10T06:58:19.545Z,96.56
2019-05-10T06:59:24.981Z,97.42
2019-05-10T07:00:19.629Z,97.42
2019-05-10T07:01:19.670Z,97.18
2019-05-10T07:02:25.758Z,97.85
2019-05-10T07:03:19.766Z,97.08
2019-05-10T07:04:19.800Z,97.95
2019-05-10T07:05:19.844Z,97.18
2019-05-10T07:06:19.887Z,97.28
2019-05-10T07:07:32.855Z,96.89
2019-05-10T07:08:20.657Z,97.47
2019-05-10T07:09:20.020Z,96.70
2019-05-10T07:10:25.210Z,97.37
2019-05-10T07:11:20.103Z,97.95
2019-05-10T07:12:20.145Z,97.95
2019-05-10T07:13:20.188Z,96.80
2019-05-10T07:14:25.388Z,96.89
2019-05-10T07:15:20.273Z,97.18
2019-05-10T07:16:24.436Z,97.18
2019-05-10T07:17:20.360Z,97.56
2019-05-10T07:18:22.506Z,97.47
2019-05-10T07:19:20.446Z,97.56
2019-05-10T07:20:23.827Z,97.56
2019-05-10T07:21:20.532Z,97.18
2019-05-10T07:22:21.795Z,97.18
2019-05-10T07:23:20.628Z,96.89
2019-05-10T07:24:24.900Z,96.51
2019-05-10T07:25:20.706Z,97.56
2019-05-10T07:26:24.328Z,97.33
2019-05-10T07:27:20.799Z,96.84
2019-05-10T07:28:20.843Z,97.61
2019-05-10T07:29:29.547Z,96.56
2019-05-10T07:30:20.925Z,96.84
2019-05-10T07:31:23.511Z,96.47
2019-05-10T07:32:22.317Z,95.31
2019-05-10T07:33:21.051Z,95.89
2019-05-10T07:34:21.100Z,95.94
2019-05-10T07:35:21.138Z,95.84
2019-05-10T07:36:27.569Z,95.17
2019-05-10T07:37:21.225Z,95.27
2019-05-10T07:38:23.612Z,95.31
2019-05-10T07:39:21.309Z,95.79
2019-05-10T07:40:21.354Z,95.79
2019-05-10T07:41:26.637Z,96.37
2019-05-10T07:42:21.446Z,96.47
2019-05-10T07:43:26.526Z,96.18
2019-05-10T07:44:21.533Z,95.31
2019-05-10T07:45:25.478Z,95.03
2019-05-10T07:46:21.611Z,94.93
2019-05-10T07:47:23.827Z,93.79
2019-05-10T07:48:23.274Z,94.84
2019-05-10T07:49:23.758Z,94.17
2019-05-10T07:50:21.790Z,94.12
2019-05-10T07:51:28.102Z,94.89
2019-05-10T07:52:21.871Z,93.74
2019-05-10T07:53:22.994Z,93.45
2019-05-10T07:54:21.958Z,94.17
2019-05-10T07:55:27.690Z,93.88
2019-05-10T07:56:22.046Z,93.49
2019-05-10T07:57:24.784Z,93.88
2019-05-10T07:58:22.133Z,91.96
2019-05-10T07:59:28.213Z,92.44
2019-05-10T08:00:25.226Z,91.72
2019-05-10T08:01:32.167Z,91.58
2019-05-10T08:02:22.307Z,92.54
2019-05-10T08:03:23.862Z,91.19
2019-05-10T08:04:29.121Z,92.39
2019-05-10T08:05:22.440Z,91.53
2019-05-10T08:06:22.484Z,91.53
2019-05-10T08:07:22.528Z,91.43
2019-05-10T08:08:22.570Z,92.05
2019-05-10T08:09:22.627Z,92.44
2019-05-10T08:10:22.665Z,90.52
2019-05-10T08:11:22.703Z,90.14
2019-05-10T08:12:22.746Z,89.65
2019-05-10T08:13:25.159Z,88.79
2019-05-10T08:14:25.225Z,88.41
2019-05-10T08:15:24.751Z,89.03
2019-05-10T08:16:23.166Z,89.18
2019-05-10T08:17:22.970Z,88.93
2019-05-10T08:18:25.386Z,89.03
2019-05-10T08:19:23.068Z,89.12
2019-05-10T08:20:41.025Z,88.65
2019-05-10T08:21:26.262Z,88.74
2019-05-10T08:22:23.194Z,88.55
2019-05-10T08:23:27.852Z,88.55
2019-05-10T08:24:23.283Z,89.12
2019-05-10T08:26:24.778Z,87.11
2019-05-10T08:27:23.417Z,87.11
2019-05-10T08:28:28.002Z,88.07
2019-05-10T08:29:23.520Z,87.88
2019-05-10T08:30:28.941Z,87.84
2019-05-10T08:31:26.202Z,87.45
2019-05-10T08:32:25.647Z,87.26
2019-05-10T08:33:23.690Z,87.35
2019-05-10T08:34:29.055Z,88.70
2019-05-10T08:35:23.776Z,87.88
2019-05-10T08:36:23.824Z,87.40
2019-05-10T08:37:33.083Z,87.98
2019-05-10T08:38:23.911Z,88.35
2019-05-10T08:39:23.955Z,87.21
2019-05-10T08:40:28.165Z,86.92
2019-05-10T08:41:24.045Z,87.88
2019-05-10T08:42:37.904Z,86.68
2019-05-10T08:43:24.609Z,86.48
2019-05-10T08:44:24.182Z,85.71
2019-05-10T08:45:24.234Z,87.05
2019-05-10T08:46:34.817Z,85.52
2019-05-10T08:47:27.615Z,85.10
2019-05-10T08:48:27.410Z,85.86
2019-05-10T08:49:31.374Z,86.05
2019-05-10T08:50:42.491Z,85.28
2019-05-10T08:51:24.504Z,85.48
2019-05-10T08:52:30.661Z,85.77
2019-05-10T08:53:24.589Z,86.54
2019-05-10T08:54:26.530Z,87.40
2019-05-10T08:55:24.679Z,86.72
2019-05-10T08:56:24.733Z,85.77
2019-05-10T08:57:24.772Z,86.34
2019-05-10T08:58:31.492Z,86.25
2019-05-10T08:59:26.790Z,86.01
2019-05-10T09:00:41.458Z,86.11
2019-05-10T09:01:30.204Z,86.97
2019-05-10T09:02:29.013Z,86.58
2019-05-10T09:03:25.042Z,87.64
2019-05-10T09:04:25.090Z,87.93
2019-05-10T09:05:28.941Z,87.21
2019-05-10T09:06:25.177Z,88.46
2019-05-10T09:07:29.492Z,88.27
2019-05-10T09:08:28.530Z,88.94
2019-05-10T09:09:25.327Z,88.84
2019-05-10T09:10:25.361Z,89.09
2019-05-10T09:11:25.404Z,89.95
2019-05-10T09:12:25.451Z,89.57
2019-05-10T09:13:28.686Z,89.76
2019-05-10T09:14:25.538Z,89.47
2019-05-10T09:15:25.591Z,90.09
2019-05-10T09:16:29.049Z,90.48
2019-05-10T09:17:28.305Z,91.72
2019-05-10T09:18:25.717Z,91.92
2019-05-10T09:19:36.162Z,92.58
2019-05-10T09:20:26.598Z,92.35
2019-05-10T09:21:25.861Z,92.06
2019-05-10T09:22:33.911Z,90.81
2019-05-10T09:23:25.954Z,90.43
2019-05-10T09:24:25.997Z,89.86
2019-05-10T09:25:29.562Z,90.05
2019-05-10T09:26:26.078Z,90.05
2019-05-10T09:27:29.201Z,90.05
2019-05-10T09:28:26.179Z,90.05
2019-05-10T09:29:27.443Z,90.14
2019-05-10T09:30:26.254Z,91.10
2019-05-10T09:31:26.384Z,90.81
2019-05-10T09:32:29.094Z,91.39
2019-05-10T09:33:26.390Z,91.05
2019-05-10T09:34:27.309Z,89.61
2019-05-10T09:35:26.477Z,89.23
2019-05-10T09:36:31.064Z,89.32
2019-05-10T09:37:26.566Z,90.00
2019-05-10T09:38:28.749Z,89.75
2019-05-10T09:39:26.654Z,88.89
2019-05-10T09:40:26.713Z,88.79
2019-05-10T09:41:27.814Z,88.89
2019-05-10T09:42:35.023Z,89.27
2019-05-10T09:43:26.841Z,88.75
2019-05-10T09:44:26.880Z,90.76
2019-05-10T09:45:26.937Z,90.38
2019-05-10T09:46:26.968Z,89.23
2019-05-10T09:47:27.014Z,90.23
2019-05-10T09:48:27.057Z,90.33
2019-05-10T09:49:27.107Z,90.33
2019-05-10T09:50:30.437Z,90.09
2019-05-10T09:51:30.043Z,90.09
2019-05-10T09:52:27.238Z,89.95
2019-05-10T09:53:30.312Z,90.43
2019-05-10T09:54:29.367Z,91.39
2019-05-10T09:55:28.007Z,91.10
2019-05-10T09:56:27.678Z,91.19
2019-05-10T09:57:27.938Z,91.86
2019-05-10T09:58:28.416Z,91.29
2019-05-10T09:59:27.869Z,91.00
2019-05-10T10:00:30.259Z,91.49
2019-05-10T10:01:28.253Z,91.39
2019-05-10T10:02:33.646Z,92.01
2019-05-10T10:03:30.115Z,92.21
2019-05-10T10:04:28.259Z,92.21
2019-05-10T10:05:27.832Z,92.97
2019-05-10T10:06:29.843Z,94.21
2019-05-10T10:07:31.799Z,93.83
2019-05-10T10:08:28.374Z,93.45
2019-05-10T10:09:33.693Z,93.64
2019-05-10T10:10:32.199Z,92.30
2019-05-10T10:11:28.084Z,93.07
2019-05-10T10:12:28.946Z,93.35
2019-05-10T10:13:39.278Z,93.93
2019-05-10T10:14:28.454Z,94.21
2019-05-10T10:15:33.218Z,93.26
2019-05-10T10:16:28.353Z,93.83
2019-05-10T10:17:30.777Z,94.12
2019-05-10T10:18:28.514Z,93.45
2019-05-10T10:19:28.440Z,93.83
2019-05-10T10:20:30.011Z,93.16
2019-05-10T10:21:35.044Z,93.26
2019-05-10T10:22:28.588Z,93.45
2019-05-10T10:23:33.048Z,93.83
2019-05-10T10:24:28.654Z,92.87
2019-05-10T10:25:30.033Z,92.49
2019-05-10T10:26:28.743Z,92.78
2019-05-10T10:27:34.607Z,93.16
2019-05-10T10:28:28.831Z,94.12
2019-05-10T10:29:33.894Z,94.12
2019-05-10T10:30:31.385Z,94.12
2019-05-10T10:31:33.145Z,93.93
2019-05-10T10:32:31.561Z,94.12
2019-05-10T10:33:29.528Z,94.12
2019-05-10T10:34:32.567Z,94.50
2019-05-10T10:35:29.902Z,93.74
2019-05-10T10:36:29.184Z,92.97
2019-05-10T10:37:31.312Z,92.68
2019-05-10T10:38:31.287Z,92.68
2019-05-10T10:39:29.315Z,92.30
2019-05-10T10:40:29.358Z,92.58
2019-05-10T10:41:31.797Z,92.49
2019-05-10T10:42:29.445Z,92.97
2019-05-10T10:43:29.489Z,92.49
2019-05-10T10:44:29.542Z,92.87
2019-05-10T10:45:29.578Z,93.26
2019-05-10T10:46:29.626Z,92.97
2019-05-10T10:47:32.136Z,92.73
2019-05-10T10:48:29.710Z,92.15
2019-05-10T10:49:31.929Z,92.82
2019-05-10T10:50:29.796Z,92.63
2019-05-10T10:51:32.340Z,92.15
2019-05-10T10:52:29.885Z,92.20
2019-05-10T10:53:29.939Z,91.05
2019-05-10T10:54:36.180Z,91.05
2019-05-10T10:55:36.254Z,91.24
2019-05-10T10:56:30.062Z,90.76
2019-05-10T10:57:30.109Z,90.61
2019-05-10T10:58:30.157Z,90.19
2019-05-10T10:59:30.197Z,90.67
2019-05-10T11:00:30.240Z,90.14
2019-05-10T11:01:46.074Z,90.81
2019-05-10T11:02:33.652Z,90.90
2019-05-10T11:03:30.924Z,89.75
2019-05-10T11:04:30.425Z,89.94
2019-05-10T11:05:30.463Z,90.33
2019-05-10T11:06:30.508Z,89.27
2019-05-10T11:07:32.875Z,90.23
2019-05-10T11:08:32.855Z,89.37
2019-05-10T11:09:31.133Z,89.27
2019-05-10T11:10:31.297Z,89.85
2019-05-10T11:11:38.914Z,89.13
2019-05-10T11:12:30.897Z,90.00
2019-05-10T11:13:43.911Z,89.90
2019-05-10T11:14:32.050Z,89.51
2019-05-10T11:15:35.847Z,89.23
2019-05-10T11:16:30.952Z,88.75
2019-05-10T11:17:30.997Z,89.23
2019-05-10T11:18:31.741Z,90.57
2019-05-10T11:19:31.682Z,91.63
2019-05-10T11:20:31.851Z,91.14
2019-05-10T11:21:33.242Z,90.28
2019-05-10T11:22:31.859Z,90.19
2019-05-10T11:23:38.731Z,91.00
2019-05-10T11:24:31.309Z,91.58
2019-05-10T11:25:31.360Z,91.29
2019-05-10T11:26:34.952Z,90.91
2019-05-10T11:27:31.440Z,91.10
2019-05-10T11:28:38.613Z,91.67
2019-05-10T11:29:31.532Z,90.48
2019-05-10T11:30:32.493Z,91.63
2019-05-10T11:31:31.619Z,92.11
2019-05-10T11:32:31.723Z,91.05
2019-05-10T11:33:33.746Z,90.86
2019-05-10T11:34:37.366Z,90.67
2019-05-10T11:35:34.411Z,91.15
2019-05-10T11:36:31.844Z,91.44
2019-05-10T11:37:35.993Z,91.15
2019-05-10T11:38:32.003Z,90.77
2019-05-10T11:39:33.197Z,90.77
2019-05-10T11:40:34.892Z,91.15
2019-05-10T11:41:32.136Z,92.92
2019-05-10T11:42:32.104Z,93.26
2019-05-10T11:43:32.150Z,93.83
2019-05-10T11:44:32.193Z,92.87
2019-05-10T11:45:35.308Z,92.35
2019-05-10T11:46:32.284Z,92.21
2019-05-10T11:47:32.325Z,91.82
2019-05-10T11:48:36.989Z,91.72
2019-05-10T11:49:32.414Z,92.11
2019-05-10T11:50:35.265Z,92.21
2019-05-10T11:51:32.506Z,92.58
2019-05-10T11:52:34.680Z,92.58
2019-05-10T11:53:32.590Z,92.49
2019-05-10T11:54:32.639Z,92.06
2019-05-10T11:55:35.795Z,93.02
2019-05-10T11:56:32.721Z,92.63
2019-05-10T11:57:33.114Z,92.63
2019-05-10T11:58:37.672Z,91.34
2019-05-10T11:59:38.256Z,90.95
2019-05-10T12:00:34.329Z,89.61
2019-05-10T12:01:32.942Z,89.80
2019-05-10T12:03:33.032Z,88.89
2019-05-10T12:04:39.285Z,88.79
2019-05-10T12:05:33.121Z,88.70
2019-05-10T12:06:33.167Z,89.47
2019-05-10T12:07:40.357Z,88.84
2019-05-10T12:08:33.256Z,88.65
2019-05-10T12:09:33.298Z,88.45
2019-05-10T12:10:33.342Z,88.02
2019-05-10T12:11:39.647Z,85.71
2019-05-10T12:12:50.708Z,84.95
2019-05-10T12:13:33.478Z,85.95
2019-05-10T12:14:33.549Z,85.66
2019-05-10T12:15:33.565Z,85.41
2019-05-10T12:16:33.798Z,85.03
2019-05-10T12:17:33.655Z,85.36
2019-05-10T12:18:36.253Z,82.19
2019-05-10T12:19:47.783Z,80.84
2019-05-10T12:20:54.361Z,80.75
2019-05-10T12:21:33.841Z,80.22
2019-05-10T12:22:38.192Z,80.13
2019-05-10T12:23:33.925Z,81.09
2019-05-10T12:24:52.129Z,81.52
2019-05-10T12:25:51.405Z,81.71
2019-05-10T12:25:59.688Z,89.71
2019-05-10T12:27:44.365Z,80.36
2019-05-10T12:28:35.698Z,79.63
2019-05-10T12:29:34.204Z,78.77
2019-05-10T12:30:35.056Z,78.67
2019-05-10T12:31:34.292Z,79.44
2019-05-10T12:32:38.777Z,77.33
2019-05-10T12:33:34.385Z,77.13
2019-05-10T12:34:34.430Z,75.98
2019-05-10T12:35:39.899Z,75.21
2019-05-10T12:36:34.523Z,74.05
2019-05-10T12:37:34.591Z,74.25
2019-05-10T12:38:35.952Z,75.31
2019-05-10T12:39:34.670Z,76.46
2019-05-10T12:40:34.706Z,78.48
2019-05-10T12:41:39.688Z,75.40
2019-05-10T12:42:34.807Z,75.69
2019-05-10T12:43:34.845Z,76.07
2019-05-10T12:44:38.959Z,76.36
2019-05-10T12:45:34.945Z,76.36
2019-05-10T12:46:38.609Z,75.94
2019-05-10T12:47:35.056Z,75.65
2019-05-10T12:48:35.882Z,76.23
2019-05-10T12:49:36.521Z,76.96
2019-05-10T12:50:35.169Z,77.25
2019-05-10T12:51:35.220Z,78.69
2019-05-10T12:52:35.270Z,79.90
2019-05-10T12:53:36.713Z,79.80
2019-05-10T12:54:35.352Z,79.90